Time;durP1;ratioP1;P1;durP2;ratioP2;P2;SDS_P1;SDS_P2;PMS_P1;PMS_P2;Temp;Humidity;BMP_temperature;BMP_pressure;BME280_temperature;BME280_humidity;BME280_pressure;Samples;Min_cycle;Max_cycle;Signal;HPM_P1;HPM_P2
2022/08/20 00:01:17;;;;;;;;;5.00;5.00;;;;;28.45;53.74;98060.78;6139394;22;101973;-96
2022/08/20 00:03:55;;;;;;;;;5.00;5.00;;;;;28.39;54.02;98063.72;6187780;22;101946;-96
2022/08/20 00:06:58;;;;;;;;;5.67;5.67;;;;;28.44;53.70;98103.63;6163593;22;102371;-96
2022/08/20 00:09:26;;;;;;;;;6.33;6.00;;;;;28.38;53.77;98111.31;6191006;22;105491;-96
2022/08/20 00:11:55;;;;;;;;;5.00;4.67;;;;;28.39;53.71;98121.31;6138909;22;102058;-96
2022/08/20 00:14:23;;;;;;;;;5.33;5.33;;;;;28.36;53.90;98128.38;6165204;22;102053;-96
2022/08/20 00:16:50;;;;;;;;;6.33;6.33;;;;;28.37;53.86;98138.31;6140596;22;102179;-96
2022/08/20 00:19:19;;;;;;;;;4.00;4.00;;;;;28.33;53.84;98134.56;6161757;22;105315;-96
2022/08/20 00:21:50;;;;;;;;;7.00;6.33;;;;;28.38;53.84;98151.09;6115514;22;101953;-96
2022/08/20 00:24:23;;;;;;;;;5.00;5.00;;;;;28.37;53.77;98148.63;6168873;22;101836;-96
2022/08/20 00:26:52;;;;;;;;;7.00;7.00;;;;;28.37;54.00;98137.50;6166341;22;101966;-96
2022/08/20 00:29:23;;;;;;;;;5.67;5.67;;;;;28.35;54.20;98145.38;6163488;22;103071;-96
2022/08/20 00:31:53;;;;;;;;;5.33;5.33;;;;;28.38;53.92;98150.25;6188100;22;102007;-96
2022/08/20 00:34:22;;;;;;;;;5.33;5.00;;;;;28.35;54.04;98145.38;6114169;22;101943;-96
2022/08/20 00:36:50;;;;;;;;;4.33;4.33;;;;;28.38;53.84;98151.09;6142241;22;102410;-96
2022/08/20 00:39:18;;;;;;;;;6.33;5.67;;;;;28.39;54.37;98151.91;6191966;22;104209;-96
2022/08/20 00:41:46;;;;;;;;;6.00;6.00;;;;;28.41;54.29;98154.38;6192057;22;101949;-96
2022/08/20 00:44:21;;;;;;;;;7.00;5.33;;;;;28.37;54.48;98149.44;6163359;22;101769;-96
2022/08/20 00:46:50;;;;;;;;;5.00;5.00;;;;;28.32;53.88;98134.91;6163284;22;102027;-96
2022/08/20 00:49:25;;;;;;;;;5.67;4.67;;;;;28.35;54.25;98128.69;6157961;22;102409;-96
2022/08/20 00:51:58;;;;;;;;;5.00;5.00;;;;;28.34;54.10;98124.25;6165144;22;101832;-96
2022/08/20 00:54:45;;;;;;;;;5.67;5.67;;;;;28.38;53.88;98128.00;6215233;22;102066;-96
2022/08/20 00:57:25;;;;;;;;;5.00;5.00;;;;;28.38;54.01;98122.44;6223541;22;102703;-96
2022/08/20 01:00:15;;;;;;;;;5.67;5.00;;;;;28.35;53.88;98112.00;6220385;22;103250;-96
2022/08/20 01:02:42;;;;;;;;;5.67;5.67;;;;;28.35;54.08;98110.03;6221557;22;101838;-96
2022/08/20 01:05:11;;;;;;;;;4.00;4.00;;;;;28.32;54.20;98104.31;6195520;22;102057;-96
2022/08/20 01:07:38;;;;;;;;;6.00;6.00;;;;;28.33;54.10;98103.97;6222238;22;101854;-96
2022/08/20 01:10:12;;;;;;;;;5.00;4.00;;;;;28.29;54.20;98086.31;6221770;22;104688;-96
2022/08/20 01:12:45;;;;;;;;;4.67;4.00;;;;;28.29;53.77;98082.72;6222347;22;101867;-96
2022/08/20 01:15:22;;;;;;;;;4.67;4.33;;;;;28.31;53.83;98095.16;6221119;22;102054;-96
2022/08/20 01:17:57;;;;;;;;;5.33;5.33;;;;;28.27;54.26;98085.84;6198565;22;102078;-96
2022/08/20 01:20:39;;;;;;;;;6.00;5.00;;;;;28.30;54.29;98096.28;6195221;22;104009;-96
2022/08/20 01:23:31;;;;;;;;;5.33;4.67;;;;;28.32;54.47;98102.31;6221984;22;102006;-96
2022/08/20 01:26:20;;;;;;;;;5.00;5.00;;;;;28.32;54.06;98105.09;6222698;22;101988;-96
2022/08/20 01:28:54;;;;;;;;;6.00;5.33;;;;;28.30;54.54;98115.75;6224353;22;101943;-96
2022/08/20 01:31:26;;;;;;;;;4.00;4.00;;;;;28.23;54.22;98104.34;6221473;22;102987;-96
2022/08/20 01:33:53;;;;;;;;;5.67;5.00;;;;;28.25;54.17;98106.75;6193804;22;101941;-96
2022/08/20 01:36:33;;;;;;;;;4.00;4.00;;;;;28.21;54.37;98103.81;6191223;22;102067;-96
2022/08/20 01:39:02;;;;;;;;;7.00;5.67;;;;;28.23;54.35;98107.09;6221758;22;102304;-96
2022/08/20 01:42:01;;;;;;;;;5.67;4.67;;;;;28.25;54.11;98118.72;6214659;22;104232;-96
2022/08/20 01:44:28;;;;;;;;;3.75;3.75;;;;;28.19;54.03;98105.31;6221399;22;101924;-96
2022/08/20 01:46:58;;;;;;;;;4.33;4.00;;;;;28.21;54.22;98112.16;6221191;22;101914;-96
2022/08/20 01:49:28;;;;;;;;;5.00;5.00;;;;;28.16;54.17;98106.78;6247347;22;102086;-96
2022/08/20 01:51:58;;;;;;;;;5.00;5.00;;;;;28.17;54.54;98111.19;6220820;22;104142;-96
2022/08/20 01:54:26;;;;;;;;;5.00;4.67;;;;;28.18;54.21;98110.06;6195070;22;102080;-96
2022/08/20 01:56:59;;;;;;;;;4.00;4.00;;;;;28.09;54.50;98098.09;6195712;22;101835;-96
2022/08/20 01:59:28;;;;;;;;;7.00;6.00;;;;;28.10;54.28;98094.16;6197409;22;101950;-96
2022/08/20 02:02:19;;;;;;;;;4.00;3.33;;;;;28.15;54.29;98107.91;6195349;22;104157;-96
2022/08/20 02:04:47;;;;;;;;;5.33;5.33;;;;;28.11;54.22;98093.03;6245714;22;101872;-96
2022/08/20 02:07:17;;;;;;;;;5.00;5.00;;;;;28.11;54.26;98092.22;6220255;22;101712;-96
2022/08/20 02:09:45;;;;;;;;;4.33;4.00;;;;;28.14;54.51;98084.06;6220581;22;102029;-96
2022/08/20 02:12:13;;;;;;;;;6.33;5.00;;;;;28.09;54.58;98078.63;6195105;22;103393;-96
2022/08/20 02:14:42;;;;;;;;;4.50;4.50;;;;;28.12;54.23;98085.50;6195274;22;101893;-96
2022/08/20 02:17:10;;;;;;;;;4.50;4.50;;;;;28.12;54.70;98082.72;6219679;22;102247;-96
2022/08/20 02:19:47;;;;;;;;;5.00;4.25;;;;;28.09;54.50;98078.63;6224130;22;101701;-96
2022/08/20 02:22:34;;;;;;;;;4.75;4.50;;;;;28.14;54.15;98081.28;6219504;22;104099;-96
2022/08/20 02:25:04;;;;;;;;;5.25;5.00;;;;;28.08;54.30;98068.66;6222790;22;101787;-96
2022/08/20 02:27:32;;;;;;;;;5.00;4.00;;;;;28.04;54.76;98062.09;6193966;22;102315;-96
2022/08/20 02:30:26;;;;;;;;;4.33;4.33;;;;;28.09;54.72;98075.03;6221831;22;102045;-96
2022/08/20 02:32:57;;;;;;;;;5.00;5.00;;;;;28.05;54.87;98058.19;6241896;22;105292;-96
2022/08/20 02:35:25;;;;;;;;;4.25;4.00;;;;;28.04;54.41;98055.72;6170327;22;102053;-96
2022/08/20 02:37:54;;;;;;;;;5.00;4.00;;;;;28.02;54.83;98047.72;6194119;22;102422;-96
2022/08/20 02:40:25;;;;;;;;;5.00;5.00;;;;;28.04;54.60;98048.22;6194655;22;101998;-96
2022/08/20 02:42:58;;;;;;;;;3.33;2.67;;;;;28.03;54.26;98049.34;6167837;22;104669;-96
2022/08/20 02:45:28;;;;;;;;;4.00;4.00;;;;;28.03;54.53;98051.31;6213645;22;101928;-96
2022/08/20 02:47:57;;;;;;;;;5.33;4.00;;;;;28.03;54.62;98043.78;6191562;22;102196;-96
2022/08/20 02:50:25;;;;;;;;;4.00;4.00;;;;;28.04;54.68;98051.00;6192390;22;102257;-96
2022/08/20 02:52:54;;;;;;;;;7.00;5.33;;;;;28.00;54.53;98044.47;6215297;22;103142;-96
2022/08/20 02:55:47;;;;;;;;;5.00;5.00;;;;;28.07;54.32;98047.53;6169128;22;101921;-96
2022/08/20 02:58:15;;;;;;;;;3.67;3.67;;;;;28.04;54.80;98047.38;6217277;22;102386;-96
2022/08/20 03:00:43;;;;;;;;;6.67;6.00;;;;;28.02;54.52;98052.44;6218675;22;101948;-96
2022/08/20 03:03:11;;;;;;;;;5.33;4.67;;;;;28.00;54.48;98050.00;6217392;22;103169;-96
2022/08/20 03:05:40;;;;;;;;;4.67;4.00;;;;;28.01;54.24;98061.94;6218176;22;102389;-96
2022/08/20 03:08:33;;;;;;;;;5.00;5.00;;;;;28.05;54.83;98058.19;6216509;22;102128;-96
2022/08/20 03:11:00;;;;;;;;;4.00;4.00;;;;;28.02;54.75;98053.28;6241828;22;102418;-96
2022/08/20 03:13:28;;;;;;;;;2.75;2.75;;;;;28.01;54.89;98053.63;6190234;22;102044;-96
2022/08/20 03:15:57;;;;;;;;;4.67;4.67;;;;;28.03;54.35;98048.53;6218296;22;101947;-96
2022/08/20 03:18:34;;;;;;;;;4.33;4.33;;;;;28.01;54.38;98046.06;6216899;22;102310;-96
2022/08/20 03:21:02;;;;;;;;;5.33;4.33;;;;;28.00;54.46;98047.25;6217168;22;102150;-96
2022/08/20 03:23:32;;;;;;;;;4.50;4.00;;;;;27.99;54.92;98034.47;6218424;22;103511;-96
2022/08/20 03:26:02;;;;;;;;;6.00;6.00;;;;;28.00;54.81;98038.91;6217732;22;101982;-96
2022/08/20 03:28:30;;;;;;;;;5.00;5.00;;;;;28.03;54.60;98037.41;6194678;22;101954;-96
2022/08/20 03:30:58;;;;;;;;;4.00;4.00;;;;;27.95;54.94;98025.97;6194841;22;102187;-96
2022/08/20 03:33:26;;;;;;;;;4.50;3.50;;;;;27.99;54.97;98031.69;6219523;22;104132;-96
2022/08/20 03:35:54;;;;;;;;;3.75;3.75;;;;;28.02;54.64;98036.59;6188231;22;102088;-96
2022/08/20 03:38:22;;;;;;;;;4.25;4.25;;;;;28.01;54.87;98034.94;6188045;22;102062;-96
2022/08/20 03:40:59;;;;;;;;;4.67;4.00;;;;;28.01;54.86;98040.50;6188913;22;102550;-96
2022/08/20 03:43:28;;;;;;;;;3.50;3.50;;;;;27.98;54.72;98040.34;6191398;22;102103;-96
2022/08/20 03:45:56;;;;;;;;;4.00;4.00;;;;;28.00;54.62;98038.91;6215643;22;102084;-96
2022/08/20 03:48:24;;;;;;;;;5.00;4.00;;;;;27.98;54.48;98034.78;6210143;22;102581;-96
2022/08/20 03:50:52;;;;;;;;;5.67;5.67;;;;;27.95;54.88;98042.66;6190094;22;101925;-96
2022/08/20 03:53:21;;;;;;;;;4.00;4.00;;;;;27.99;54.39;98042.81;6217579;22;104143;-96
2022/08/20 03:55:53;;;;;;;;;4.00;4.00;;;;;27.99;54.93;98037.25;6220597;22;101800;-96
2022/08/20 03:58:28;;;;;;;;;4.00;4.00;;;;;27.97;54.89;98039.53;6218893;22;102846;-96
2022/08/20 04:01:02;;;;;;;;;5.33;5.33;;;;;27.93;54.96;98027.44;6220069;22;102010;-96
2022/08/20 04:03:29;;;;;;;;;5.00;4.50;;;;;27.93;54.97;98025.47;6192792;22;105432;-96
2022/08/20 04:05:58;;;;;;;;;4.00;4.00;;;;;27.96;54.64;98024.03;6218943;22;102211;-96
2022/08/20 04:08:28;;;;;;;;;3.25;3.00;;;;;27.94;54.69;98015.19;6218270;22;102013;-96
2022/08/20 04:10:58;;;;;;;;;5.50;4.25;;;;;27.95;54.65;98019.59;6193771;22;102427;-96
2022/08/20 04:13:27;;;;;;;;;3.75;3.00;;;;;27.93;54.52;98010.75;6243996;22;105074;-96
2022/08/20 04:15:55;;;;;;;;;4.67;4.67;;;;;27.97;54.87;98022.84;6221523;22;101817;-96
2022/08/20 04:18:24;;;;;;;;;5.33;5.33;;;;;27.93;54.92;98010.75;6219389;22;102011;-96
2022/08/20 04:21:16;;;;;;;;;4.00;4.00;;;;;27.99;55.02;98015.03;6221496;22;102034;-96
2022/08/20 04:23:44;;;;;;;;;3.67;3.67;;;;;28.00;55.01;98010.28;6246855;22;103434;-96
2022/08/20 04:26:12;;;;;;;;;4.25;4.25;;;;;27.98;54.81;98001.44;6221781;22;101959;-96
2022/08/20 04:28:40;;;;;;;;;4.00;4.00;;;;;27.98;54.58;98002.25;6197973;22;101984;-96
2022/08/20 04:31:08;;;;;;;;;3.50;3.00;;;;;27.99;54.87;97987.22;6199894;22;102119;-96
2022/08/20 04:33:41;;;;;;;;;4.00;3.50;;;;;27.95;54.61;97984.28;6220853;22;103266;-96
2022/08/20 04:36:09;;;;;;;;;3.00;3.00;;;;;27.94;54.37;97982.66;6168939;22;101971;-96
2022/08/20 04:38:37;;;;;;;;;4.50;3.75;;;;;27.99;54.69;97998.34;6219900;22;102357;-96
2022/08/20 04:41:19;;;;;;;;;2.50;2.50;;;;;27.98;54.58;97990.31;6219665;22;101886;-96
2022/08/20 04:43:53;;;;;;;;;5.00;5.00;;;;;27.99;54.31;97983.63;6222449;22;101950;-96
2022/08/20 04:46:43;;;;;;;;;3.25;3.25;;;;;27.99;54.47;98009.47;6222384;22;102002;-96
2022/08/20 04:49:36;;;;;;;;;3.67;3.67;;;;;27.99;54.77;98019.75;6249587;22;102160;-96
2022/08/20 04:52:03;;;;;;;;;3.67;3.67;;;;;27.95;54.80;98019.59;6253754;22;101782;-96
2022/08/20 04:54:31;;;;;;;;;4.33;4.00;;;;;27.94;54.43;98029.91;6227976;22;103913;-96
2022/08/20 04:57:00;;;;;;;;;5.00;4.00;;;;;27.98;54.78;98018.94;6225025;22;101964;-96
2022/08/20 04:59:28;;;;;;;;;3.00;3.00;;;;;27.99;54.42;98028.09;6222089;22;101827;-96
2022/08/20 05:01:56;;;;;;;;;4.00;4.00;;;;;28.02;54.40;98028.25;6172248;22;101995;-96
2022/08/20 05:04:26;;;;;;;;;2.75;2.75;;;;;28.03;54.62;98034.63;6221944;22;103253;-96
2022/08/20 05:06:54;;;;;;;;;5.00;4.00;;;;;28.02;54.70;98041.31;6221228;22;102048;-96
2022/08/20 05:09:23;;;;;;;;;4.67;4.00;;;;;28.02;54.46;98033.81;6218865;22;102130;-96
2022/08/20 05:11:52;;;;;;;;;4.00;4.00;;;;;28.03;54.59;98020.72;6220964;22;102437;-96
2022/08/20 05:14:20;;;;;;;;;3.67;3.67;;;;;28.03;54.27;98027.13;6220261;22;105292;-96
2022/08/20 05:17:14;;;;;;;;;3.00;3.00;;;;;28.08;54.41;98029.72;6223216;22;101741;-96
2022/08/20 05:19:42;;;;;;;;;4.00;4.00;;;;;28.06;54.51;98018.09;6246918;22;101913;-96
2022/08/20 05:22:10;;;;;;;;;5.67;4.67;;;;;28.07;54.36;98022.53;6223192;22;102265;-96
2022/08/20 05:24:38;;;;;;;;;4.33;4.33;;;;;28.03;54.82;98013.22;6224122;22;102211;-96
2022/08/20 05:27:07;;;;;;;;;7.50;6.00;;;;;28.01;54.28;97998.81;6173155;22;102152;-96
2022/08/20 05:29:52;;;;;;;;;4.25;4.25;;;;;28.07;54.90;97996.69;6222368;22;101918;-96
2022/08/20 05:32:20;;;;;;;;;4.00;4.00;;;;;28.08;54.56;98013.03;6194614;22;102070;-96
2022/08/20 05:34:48;;;;;;;;;4.33;4.33;;;;;28.02;54.61;98003.22;6193426;22;103055;-96
2022/08/20 05:37:17;;;;;;;;;3.00;3.00;;;;;28.03;54.47;98013.22;6196335;22;101735;-96
2022/08/20 05:39:45;;;;;;;;;3.67;3.67;;;;;28.03;55.17;98013.22;6225344;22;101787;-96
2022/08/20 05:42:13;;;;;;;;;4.00;3.00;;;;;28.02;55.00;98013.53;6225216;22;102317;-96
2022/08/20 05:44:41;;;;;;;;;4.25;4.00;;;;;28.04;55.55;98014.03;6221127;22;102147;-96
2022/08/20 05:47:09;;;;;;;;;3.50;3.50;;;;;28.04;55.42;98006.50;6222569;22;101942;-96
2022/08/20 05:49:37;;;;;;;;;4.00;3.50;;;;;28.05;55.53;98013.72;6175057;22;101740;-96
2022/08/20 05:52:05;;;;;;;;;4.00;4.00;;;;;28.09;55.83;98019.44;6201405;22;102014;-96
2022/08/20 05:54:33;;;;;;;;;5.00;5.00;;;;;28.08;55.58;98018.59;6198330;22;103175;-96
2022/08/20 05:57:00;;;;;;;;;4.00;4.00;;;;;28.03;56.29;98018.78;6224068;22;102050;-96
2022/08/20 05:59:54;;;;;;;;;4.00;4.00;;;;;28.08;56.42;98031.69;6202301;22;102005;-96
2022/08/20 06:05:30;;;;;;;;;5.00;5.00;;;;;28.07;56.26;98039.22;6206306;22;102195;-96
2022/08/20 06:07:57;;;;;;;;;5.33;5.33;;;;;28.01;56.52;98028.59;6252037;22;101787;-96
2022/08/20 06:10:34;;;;;;;;;4.00;4.00;;;;;28.01;56.35;98029.38;6201676;22;101635;-96
2022/08/20 06:13:03;;;;;;;;;5.00;4.67;;;;;28.01;56.43;98025.81;6176769;22;101863;-96
2022/08/20 06:15:31;;;;;;;;;4.00;4.00;;;;;28.02;56.38;98047.72;6198164;22;104384;-96
2022/08/20 06:18:03;;;;;;;;;5.00;5.00;;;;;28.05;56.55;98041.50;6198718;22;101957;-96
2022/08/20 06:20:50;;;;;;;;;4.00;4.00;;;;;28.06;56.51;98051.47;6227679;22;101926;-96
2022/08/20 06:23:18;;;;;;;;;4.00;4.00;;;;;28.05;56.70;98049.84;6203369;22;102133;-96
2022/08/20 06:25:48;;;;;;;;;4.00;4.00;;;;;28.03;57.04;98043.78;6227710;22;102924;-96
2022/08/20 06:28:17;;;;;;;;;6.00;5.00;;;;;28.03;57.00;98049.34;6203331;22;101468;-96
2022/08/20 06:30:48;;;;;;;;;3.67;3.67;;;;;28.06;57.09;98045.09;6176612;22;101944;-96
2022/08/20 06:33:16;;;;;;;;;3.00;3.00;;;;;28.03;56.96;98035.44;6205923;22;101541;-96
2022/08/20 06:35:45;;;;;;;;;5.00;4.67;;;;;28.04;57.13;98027.94;6206185;22;102163;-96
2022/08/20 06:38:13;;;;;;;;;4.00;4.00;;;;;28.05;57.17;98044.28;6229265;22;101660;-96
2022/08/20 06:40:41;;;;;;;;;5.33;4.00;;;;;28.00;57.04;98036.13;6205573;22;102006;-96
2022/08/20 06:43:09;;;;;;;;;4.00;4.00;;;;;28.01;57.14;98031.38;6204062;22;102032;-96
2022/08/20 06:45:38;;;;;;;;;5.00;4.33;;;;;28.03;57.55;98032.66;6225006;22;104500;-96
2022/08/20 06:48:37;;;;;;;;;4.33;4.33;;;;;28.06;57.55;98031.19;6226744;22;101711;-96
2022/08/20 06:51:05;;;;;;;;;4.33;3.33;;;;;27.99;57.20;98026.13;6252272;22;101759;-96
2022/08/20 06:53:33;;;;;;;;;5.00;5.00;;;;;27.99;56.96;98026.13;6202855;22;102304;-96
2022/08/20 06:56:02;;;;;;;;;5.33;4.67;;;;;27.99;57.60;98026.13;6201139;22;105857;-96
2022/08/20 06:58:31;;;;;;;;;5.00;5.00;;;;;28.01;57.12;98028.59;6201750;22;101821;-96
2022/08/20 07:01:07;;;;;;;;;6.33;5.67;;;;;28.00;57.30;98029.75;6203090;22;101924;-96
2022/08/20 07:03:38;;;;;;;;;4.50;3.75;;;;;27.99;57.24;98036.44;6202379;22;101965;-96
2022/08/20 07:06:20;;;;;;;;;6.75;6.00;;;;;28.01;57.43;98032.16;6225980;22;103253;-96
2022/08/20 07:08:49;;;;;;;;;4.75;4.75;;;;;28.01;57.63;98042.50;6228338;22;101867;-96
2022/08/20 07:11:19;;;;;;;;;4.00;4.00;;;;;28.06;57.85;98036.75;6226734;22;101932;-96
2022/08/20 07:13:55;;;;;;;;;5.00;5.00;;;;;28.06;57.66;98048.69;6228250;22;101809;-96
2022/08/20 07:16:23;;;;;;;;;3.50;3.50;;;;;28.04;57.62;98039.88;6227351;22;103232;-96
2022/08/20 07:18:51;;;;;;;;;5.00;4.33;;;;;28.02;58.05;98033.81;6176961;22;101832;-96
2022/08/20 07:21:19;;;;;;;;;6.00;5.00;;;;;28.03;58.00;98032.66;6201570;22;101963;-96
2022/08/20 07:23:48;;;;;;;;;4.00;4.00;;;;;28.02;57.91;98039.38;6226434;22;102091;-96
2022/08/20 07:26:16;;;;;;;;;4.75;4.75;;;;;28.03;57.83;98038.22;6178163;22;103303;-96
2022/08/20 07:29:09;;;;;;;;;5.00;4.25;;;;;28.06;57.75;98042.31;6201409;22;102308;-96
2022/08/20 07:34:23;;;;;;;;;4.00;4.00;;;;;27.97;57.53;98028.41;6225569;22;101870;-96
2022/08/20 07:36:50;;;;;;;;;4.00;4.00;;;;;28.00;58.20;98038.91;6197368;22;103961;-96
2022/08/20 07:39:20;;;;;;;;;4.25;4.25;;;;;27.98;58.10;98043.94;6223152;22;102005;-96
2022/08/20 07:42:01;;;;;;;;;3.67;3.67;;;;;27.98;58.17;98046.72;6195271;22;102078;-96
2022/08/20 07:44:29;;;;;;;;;4.00;4.00;;;;;28.00;57.85;98058.34;6200633;22;101924;-96
2022/08/20 07:47:27;;;;;;;;;5.00;5.00;;;;;28.04;57.73;98067.66;6196002;22;104068;-96
2022/08/20 07:49:55;;;;;;;;;3.00;3.00;;;;;28.01;57.50;98068.31;6247377;22;101995;-96
2022/08/20 07:52:23;;;;;;;;;4.00;4.00;;;;;28.05;57.64;98069.31;6174728;22;101848;-96
2022/08/20 07:54:51;;;;;;;;;5.75;5.00;;;;;28.01;57.79;98059.19;6199387;22;101867;-96
2022/08/20 07:57:50;;;;;;;;;5.50;4.25;;;;;28.07;57.96;98067.00;6198944;22;105382;-96
2022/08/20 08:00:19;;;;;;;;;3.67;3.67;;;;;28.06;57.99;98070.91;6249088;22;101940;-96
2022/08/20 08:02:49;;;;;;;;;5.00;5.00;;;;;28.02;57.39;98061.59;6203371;22;101990;-96
2022/08/20 08:05:17;;;;;;;;;5.00;5.00;;;;;27.98;56.75;98057.84;6208252;22;102220;-96
2022/08/20 08:08:16;;;;;;;;;3.00;3.00;;;;;28.05;57.63;98072.09;6200083;22;104914;-96
2022/08/20 08:11:08;;;;;;;;;4.00;4.00;;;;;28.06;57.50;98059.81;6252122;22;101749;-96
2022/08/20 08:13:39;;;;;;;;;5.00;5.00;;;;;28.00;57.79;98044.47;6250327;22;102171;-96
2022/08/20 08:16:10;;;;;;;;;5.25;4.75;;;;;28.07;58.36;98050.31;6204278;22;102545;-96
2022/08/20 08:18:43;;;;;;;;;5.75;5.75;;;;;28.07;58.21;98053.09;6225003;22;103339;-96
2022/08/20 08:21:14;;;;;;;;;6.00;5.00;;;;;28.02;58.07;98049.66;6202109;22;101712;-96
2022/08/20 08:23:43;;;;;;;;;5.33;5.00;;;;;28.00;58.27;98051.97;6225748;22;101931;-96
2022/08/20 08:26:12;;;;;;;;;4.25;4.25;;;;;28.05;58.70;98057.38;6202980;22;102135;-96
2022/08/20 08:28:44;;;;;;;;;4.00;3.33;;;;;28.03;58.98;98066.03;6253293;22;102226;-96
2022/08/20 08:31:12;;;;;;;;;6.33;5.67;;;;;28.01;59.30;98061.94;6201277;22;101906;-96
2022/08/20 08:47:34;;;;;;;;;9.33;8.67;;;;;27.70;60.06;98067.63;6241246;22;102445;-97
2022/08/20 08:50:24;;;;;;;;;10.67;10.33;;;;;27.72;60.48;98080.09;6236934;22;102143;-96
2022/08/20 08:53:21;;;;;;;;;8.00;7.33;;;;;27.73;59.82;98061.44;6233989;22;101952;-96
2022/08/20 08:56:16;;;;;;;;;9.33;8.33;;;;;27.81;59.89;98074.53;6184334;22;101919;-96
2022/08/20 08:58:44;;;;;;;;;9.33;7.67;;;;;27.76;59.82;98067.16;6230974;22;101834;-96
2022/08/20 09:01:45;;;;;;;;;6.33;6.33;;;;;27.84;60.10;98074.69;6228364;22;104111;-96
2022/08/20 09:04:26;;;;;;;;;9.33;9.00;;;;;27.84;60.26;98069.13;6247745;22;101854;-96
2022/08/20 09:06:54;;;;;;;;;7.67;7.67;;;;;27.86;60.34;98066.03;6225809;22;101905;-96
2022/08/20 09:09:37;;;;;;;;;8.00;8.00;;;;;27.79;60.39;98054.56;6226266;22;101866;-96
2022/08/20 09:12:13;;;;;;;;;8.33;7.67;;;;;27.85;60.52;98059.66;6223952;22;102054;-96
2022/08/20 09:14:41;;;;;;;;;8.67;8.33;;;;;27.82;60.51;98054.75;6224975;22;102081;-96
2022/08/20 09:17:09;;;;;;;;;8.00;7.00;;;;;27.82;60.40;98063.09;6198427;22;102451;-96
2022/08/20 09:19:37;;;;;;;;;8.00;7.00;;;;;27.86;60.53;98061.28;6227739;22;101958;-96
2022/08/20 09:22:15;;;;;;;;;7.00;7.00;;;;;27.82;60.03;98040.03;6197858;22;103291;-96
2022/08/20 09:24:43;;;;;;;;;10.00;9.00;;;;;27.85;60.23;98042.16;6171388;22;101995;-96
2022/08/20 09:27:12;;;;;;;;;8.00;8.00;;;;;27.84;59.92;98029.41;6198077;22;101728;-96
2022/08/20 09:29:40;;;;;;;;;9.00;8.00;;;;;27.86;59.97;98027.13;6173845;22;101975;-96
2022/08/20 09:32:15;;;;;;;;;7.00;7.00;;;;;27.87;59.70;98017.66;6170635;22;101941;-96
2022/08/20 09:34:44;;;;;;;;;11.00;11.00;;;;;27.88;59.49;98013.72;6224723;22;101651;-96
2022/08/20 09:37:11;;;;;;;;;8.00;8.00;;;;;27.92;60.10;98017.47;6199684;22;101862;-96
2022/08/20 10:17:56;;;;;;;;;7.00;6.00;;;;;27.79;60.52;98033.16;6191996;22;102059;-96
2022/08/20 10:20:48;;;;;;;;;7.33;7.00;;;;;27.85;60.62;98040.19;6215800;22;101957;-96
2022/08/20 10:23:15;;;;;;;;;6.67;6.00;;;;;27.83;61.03;98033.31;6218380;22;101838;-96
2022/08/20 10:25:43;;;;;;;;;7.00;7.00;;;;;27.81;60.81;98030.88;6194295;22;102232;-96
2022/08/20 10:28:11;;;;;;;;;8.00;7.33;;;;;27.83;60.98;98027.75;6166731;22;104945;-96
2022/08/20 10:30:40;;;;;;;;;8.00;8.00;;;;;27.84;61.07;98034.97;6168606;22;102320;-96
2022/08/20 10:33:09;;;;;;;;;6.67;6.67;;;;;27.84;61.00;98033.00;6169103;22;101809;-96
2022/08/20 10:35:36;;;;;;;;;6.00;6.00;;;;;27.87;60.92;98023.22;6172196;22;102016;-96
2022/08/20 10:38:04;;;;;;;;;8.00;7.00;;;;;27.85;60.95;98025.50;6170390;22;102219;-96
2022/08/20 10:40:33;;;;;;;;;7.00;6.67;;;;;27.89;61.15;98032.84;6196749;22;101896;-96
2022/08/20 10:43:01;;;;;;;;;9.00;8.00;;;;;27.88;60.93;98030.38;6194850;22;102027;-96
2022/08/20 10:45:30;;;;;;;;;9.00;7.67;;;;;27.90;61.06;98028.09;6164085;22;102127;-96
2022/08/20 10:47:59;;;;;;;;;5.33;5.00;;;;;27.83;60.99;98020.25;6186172;22;105756;-96
2022/08/20 10:50:27;;;;;;;;;8.00;7.00;;;;;27.82;60.63;98032.53;6216660;22;101822;-96
2022/08/20 10:52:56;;;;;;;;;8.00;8.00;;;;;27.83;61.18;98025.81;6146862;22;101942;-96
2022/08/20 10:55:24;;;;;;;;;8.00;8.00;;;;;27.87;61.34;98034.31;6223563;22;101712;-96
2022/08/20 10:58:35;;;;;;;;;7.67;7.67;;;;;27.85;61.10;98042.16;6171901;22;105582;-96
2022/08/20 11:01:07;;;;;;;;;7.00;7.00;;;;;27.85;61.43;98039.38;6199006;22;101840;-96
2022/08/20 11:04:20;;;;;;;;;8.00;8.00;;;;;27.84;61.42;98044.13;6182674;22;101721;-96
2022/08/20 11:06:48;;;;;;;;;7.00;6.00;;;;;27.81;61.17;98035.63;6222102;22;102138;-96
2022/08/20 11:09:15;;;;;;;;;9.00;8.67;;;;;27.82;61.29;98032.53;6171067;22;102227;-96
2022/08/20 11:11:43;;;;;;;;;8.67;8.00;;;;;27.82;61.25;98040.88;6194915;22;101936;-96
2022/08/20 11:14:55;;;;;;;;;6.00;6.00;;;;;27.83;61.55;98038.88;6171233;22;101905;-96
2022/08/20 11:17:28;;;;;;;;;7.00;6.67;;;;;27.78;61.55;98039.06;6222724;22;102044;-96
2022/08/20 11:19:57;;;;;;;;;6.00;6.00;;;;;27.82;61.21;98031.72;6170521;22;102219;-96
2022/08/20 11:22:25;;;;;;;;;5.00;5.00;;;;;27.78;61.49;98019.63;6146106;22;102062;-96
2022/08/20 11:24:53;;;;;;;;;6.67;6.67;;;;;27.79;61.45;98019.28;6221558;22;101967;-96
2022/08/20 11:27:26;;;;;;;;;6.33;6.00;;;;;27.80;61.78;98017.31;6198716;22;101955;-96
2022/08/20 11:29:54;;;;;;;;;5.00;5.00;;;;;27.80;61.13;98020.09;6196047;22;102994;-96
2022/08/20 11:32:22;;;;;;;;;6.33;5.00;;;;;27.78;61.16;98011.28;6196982;22;101866;-96
2022/08/20 11:35:13;;;;;;;;;6.00;6.00;;;;;27.79;61.31;98022.06;6196979;22;101969;-96
2022/08/20 11:38:01;;;;;;;;;6.67;6.67;;;;;27.75;61.23;98015.50;6202333;22;101782;-96
2022/08/20 11:40:30;;;;;;;;;7.00;7.00;;;;;27.74;61.38;98007.53;6222501;22;103185;-96
2022/08/20 11:42:59;;;;;;;;;6.33;6.33;;;;;27.75;61.26;98014.69;6171870;22;102109;-96
2022/08/20 11:45:44;;;;;;;;;8.00;7.67;;;;;27.71;61.64;98010.94;6200919;22;101904;-96
2022/08/20 11:48:13;;;;;;;;;7.00;7.00;;;;;27.72;61.54;98010.63;6147756;22;102118;-96
2022/08/20 11:50:41;;;;;;;;;7.00;7.00;;;;;27.73;61.17;98012.25;6196732;22;102862;-96
2022/08/20 11:53:10;;;;;;;;;6.00;6.00;;;;;27.74;61.16;98013.09;6199721;22;102015;-96
2022/08/20 11:55:40;;;;;;;;;6.33;6.33;;;;;27.67;60.50;98004.41;6201624;22;101851;-96
2022/08/20 11:58:08;;;;;;;;;6.00;5.00;;;;;27.67;60.63;98007.19;6203454;22;102056;-96
2022/08/20 12:00:38;;;;;;;;;6.33;6.00;;;;;27.68;60.61;98008.81;6178233;22;102378;-96
2022/08/20 12:03:06;;;;;;;;;5.67;5.67;;;;;27.68;60.63;98008.81;6176479;22;101701;-96
2022/08/20 12:05:44;;;;;;;;;7.67;6.67;;;;;27.68;60.77;97998.53;6186467;22;101477;-96
2022/08/20 12:08:13;;;;;;;;;6.33;6.00;;;;;27.75;60.84;97996.06;6184998;22;101583;-96
2022/08/20 12:10:53;;;;;;;;;5.00;5.00;;;;;27.76;60.86;97994.94;6210610;22;102069;-96
2022/08/20 12:13:35;;;;;;;;;5.00;5.00;;;;;27.73;60.67;97978.09;6162308;22;101884;-96
2022/08/20 12:16:18;;;;;;;;;7.67;6.67;;;;;27.77;61.02;97973.53;6187607;22;101299;-96
2022/08/20 12:18:53;;;;;;;;;5.67;5.67;;;;;27.73;60.79;97958.66;6211938;22;101385;-96
2022/08/20 12:21:34;;;;;;;;;9.00;7.00;;;;;27.73;61.39;97967.81;6183222;22;104219;-96
2022/08/20 12:24:03;;;;;;;;;7.00;7.00;;;;;27.69;61.04;97961.28;6177635;22;102014;-96
2022/08/20 12:26:33;;;;;;;;;5.00;5.00;;;;;27.69;61.03;97966.84;6179644;22;102325;-96
2022/08/20 12:29:02;;;;;;;;;6.00;6.00;;;;;27.71;61.08;97983.97;6154293;22;101812;-96
2022/08/20 12:31:31;;;;;;;;;7.00;6.00;;;;;27.71;60.90;97983.16;6151143;22;103106;-96
2022/08/20 12:33:59;;;;;;;;;7.00;6.00;;;;;27.68;61.13;97981.88;6175730;22;102441;-96
2022/08/20 12:36:27;;;;;;;;;5.67;5.67;;;;;27.69;60.94;97985.47;6150922;22;102007;-96
2022/08/20 12:38:55;;;;;;;;;6.00;5.00;;;;;27.72;60.75;97987.56;6176535;22;102057;-96
2022/08/20 12:41:23;;;;;;;;;6.00;6.00;;;;;27.67;61.34;97990.50;6201322;22;104326;-96
2022/08/20 12:43:52;;;;;;;;;5.00;4.33;;;;;27.68;61.09;97987.41;6154427;22;102288;-96
2022/08/20 12:46:21;;;;;;;;;6.00;6.00;;;;;27.69;60.96;97996.56;6153784;22;101795;-96
2022/08/20 12:48:48;;;;;;;;;6.33;6.33;;;;;27.69;60.84;97994.63;6180053;22;102060;-96